sensor_id;sensor_type;location;lat;lon;timestamp;pressure;altitude;pressure_sealevel;temperature;humidity
57610;BME280;43435;46.186;9.024;2023-12-04T07:42:16;99238.50;;;4.82;50.61
57610;BME280;43435;46.186;9.024;2023-12-04T13:59:44;98950.09;;;6.69;55.46
57610;BME280;43435;46.186;9.024;2023-12-04T14:02:09;98949.44;;;6.75;54.88
57610;BME280;43435;46.186;9.024;2023-12-04T14:04:37;98948.66;;;6.67;55.00
57610;BME280;43435;46.186;9.024;2023-12-04T14:07:03;98950.75;;;6.80;54.65
57610;BME280;43435;46.186;9.024;2023-12-04T14:09:29;98958.88;;;6.86;54.50
57610;BME280;43435;46.186;9.024;2023-12-04T14:11:54;98957.72;;;6.81;54.18
57610;BME280;43435;46.186;9.024;2023-12-04T14:14:19;98955.41;;;6.69;54.73
57610;BME280;43435;46.186;9.024;2023-12-04T14:16:44;98956.22;;;6.70;54.93
57610;BME280;43435;46.186;9.024;2023-12-04T14:19:12;98949.13;;;6.70;55.32
57610;BME280;43435;46.186;9.024;2023-12-04T14:21:38;98951.44;;;6.82;54.96
57610;BME280;43435;46.186;9.024;2023-12-04T14:24:03;98944.66;;;6.71;55.58
57610;BME280;43435;46.186;9.024;2023-12-04T14:26:29;98951.13;;;6.60;56.30
57610;BME280;43435;46.186;9.024;2023-12-04T14:28:54;98946.81;;;6.67;55.93
57610;BME280;43435;46.186;9.024;2023-12-04T14:31:21;98944.16;;;6.75;55.61
57610;BME280;43435;46.186;9.024;2023-12-04T14:33:46;98945.13;;;6.83;55.45
57610;BME280;43435;46.186;9.024;2023-12-04T14:36:11;98951.91;;;6.77;56.06
57610;BME280;43435;46.186;9.024;2023-12-04T14:38:38;98945.47;;;6.71;56.63
57610;BME280;43435;46.186;9.024;2023-12-04T14:41:03;98954.94;;;6.58;57.55
57610;BME280;43435;46.186;9.024;2023-12-04T14:43:29;98959.06;;;6.44;58.79
57610;BME280;43435;46.186;9.024;2023-12-04T14:45:54;98955.94;;;6.48;58.41
57610;BME280;43435;46.186;9.024;2023-12-04T14:48:19;98952.44;;;6.40;58.88
57610;BME280;43435;46.186;9.024;2023-12-04T14:50:45;98958.75;;;6.39;59.56
57610;BME280;43435;46.186;9.024;2023-12-04T14:53:10;98958.75;;;6.31;60.19
57610;BME280;43435;46.186;9.024;2023-12-04T14:55:53;98958.41;;;6.25;60.29
57610;BME280;43435;46.186;9.024;2023-12-04T14:58:42;98951.63;;;6.31;60.05
57610;BME280;43435;46.186;9.024;2023-12-04T15:01:10;98950.78;;;6.14;61.29
57610;BME280;43435;46.186;9.024;2023-12-04T15:04:01;98958.09;;;6.04;62.56
57610;BME280;43435;46.186;9.024;2023-12-04T15:06:45;98952.75;;;5.96;63.35
57610;BME280;43435;46.186;9.024;2023-12-04T15:09:16;98948.25;;;5.88;63.83
57610;BME280;43435;46.186;9.024;2023-12-04T15:12:00;98948.47;;;5.95;63.34
57610;BME280;43435;46.186;9.024;2023-12-04T15:14:46;98939.56;;;6.04;62.94
57610;BME280;43435;46.186;9.024;2023-12-04T15:17:31;98937.50;;;5.90;63.77
57610;BME280;43435;46.186;9.024;2023-12-04T15:20:13;98940.28;;;5.80;64.64
57610;BME280;43435;46.186;9.024;2023-12-04T15:22:38;98943.56;;;5.74;65.33
57610;BME280;43435;46.186;9.024;2023-12-04T15:25:04;98934.16;;;5.71;66.12
57610;BME280;43435;46.186;9.024;2023-12-04T15:27:31;98938.47;;;5.72;66.00
57610;BME280;43435;46.186;9.024;2023-12-04T15:29:57;98931.34;;;5.73;65.62
57610;BME280;43435;46.186;9.024;2023-12-04T15:32:22;98928.56;;;5.74;66.18
57610;BME280;43435;46.186;9.024;2023-12-04T15:47:36;98915.75;;;5.53;67.61
57610;BME280;43435;46.186;9.024;2023-12-04T15:50:01;98913.81;;;5.72;66.38
57610;BME280;43435;46.186;9.024;2023-12-04T15:52:30;98910.81;;;5.58;66.87
57610;BME280;43435;46.186;9.024;2023-12-04T15:54:55;98914.78;;;5.63;67.16
57610;BME280;43435;46.186;9.024;2023-12-04T15:57:20;98917.91;;;5.58;67.92
57610;BME280;43435;46.186;9.024;2023-12-04T15:59:45;98929.63;;;5.55;67.63
57610;BME280;43435;46.186;9.024;2023-12-04T16:02:10;98921.88;;;5.54;67.73
57610;BME280;43435;46.186;9.024;2023-12-04T16:04:36;98925.00;;;5.49;67.63
57610;BME280;43435;46.186;9.024;2023-12-04T16:07:02;98918.72;;;5.50;67.97
57610;BME280;43435;46.186;9.024;2023-12-04T16:09:27;98917.28;;;5.56;67.50
57610;BME280;43435;46.186;9.024;2023-12-04T18:04:21;98880.66;;;5.27;70.73
57610;BME280;43435;46.186;9.024;2023-12-04T18:06:46;98885.75;;;5.28;70.79
57610;BME280;43435;46.186;9.024;2023-12-04T18:09:11;98890.75;;;5.31;70.63
57610;BME280;43435;46.186;9.024;2023-12-04T18:11:37;98883.50;;;5.42;69.87
57610;BME280;43435;46.186;9.024;2023-12-04T18:14:03;98865.25;;;5.22;70.57
57610;BME280;43435;46.186;9.024;2023-12-04T18:16:29;98876.31;;;5.26;70.24
57610;BME280;43435;46.186;9.024;2023-12-04T18:18:54;98878.31;;;5.24;70.57
57610;BME280;43435;46.186;9.024;2023-12-04T18:21:20;98884.44;;;5.24;70.42
57610;BME280;43435;46.186;9.024;2023-12-04T18:23:45;98886.16;;;5.42;69.91
57610;BME280;43435;46.186;9.024;2023-12-04T18:26:11;98882.66;;;5.41;69.93
57610;BME280;43435;46.186;9.024;2023-12-04T18:28:36;98884.16;;;5.52;69.76
57610;BME280;43435;46.186;9.024;2023-12-04T18:31:02;98881.19;;;5.55;69.97
57610;BME280;43435;46.186;9.024;2023-12-04T18:33:28;98879.06;;;5.50;70.60
57610;BME280;43435;46.186;9.024;2023-12-04T18:35:58;98878.22;;;5.50;70.46
57610;BME280;43435;46.186;9.024;2023-12-04T18:38:29;98872.94;;;5.50;70.56
57610;BME280;43435;46.186;9.024;2023-12-04T18:40:54;98872.28;;;5.56;69.79
57610;BME280;43435;46.186;9.024;2023-12-04T18:58:50;98827.84;;;5.92;66.15
57610;BME280;43435;46.186;9.024;2023-12-04T19:01:15;98844.19;;;5.88;66.58
57610;BME280;43435;46.186;9.024;2023-12-04T19:03:40;98842.56;;;5.87;66.70
57610;BME280;43435;46.186;9.024;2023-12-04T19:06:06;98851.13;;;5.72;67.83
57610;BME280;43435;46.186;9.024;2023-12-04T19:08:31;98843.03;;;5.74;67.96
57610;BME280;43435;46.186;9.024;2023-12-04T19:10:56;98838.09;;;5.87;66.64
57610;BME280;43435;46.186;9.024;2023-12-04T19:13:21;98848.16;;;5.75;67.84
57610;BME280;43435;46.186;9.024;2023-12-04T19:15:46;98836.22;;;5.63;69.13
57610;BME280;43435;46.186;9.024;2023-12-04T19:18:12;98833.91;;;5.52;69.37
57610;BME280;43435;46.186;9.024;2023-12-04T19:20:37;98829.78;;;5.57;72.58
57610;BME280;43435;46.186;9.024;2023-12-04T19:23:02;98829.63;;;5.51;69.76
57610;BME280;43435;46.186;9.024;2023-12-04T19:25:28;98836.03;;;5.40;70.64
57610;BME280;43435;46.186;9.024;2023-12-04T19:27:53;98834.91;;;5.43;70.87
57610;BME280;43435;46.186;9.024;2023-12-04T19:30:18;98828.13;;;5.48;71.11
57610;BME280;43435;46.186;9.024;2023-12-04T19:32:44;98829.28;;;5.54;70.81
57610;BME280;43435;46.186;9.024;2023-12-04T19:35:12;98832.75;;;5.54;70.72
57610;BME280;43435;46.186;9.024;2023-12-04T19:37:38;98837.09;;;5.64;70.46
57610;BME280;43435;46.186;9.024;2023-12-04T19:40:03;98837.41;;;5.77;69.62
57610;BME280;43435;46.186;9.024;2023-12-04T19:42:29;98834.25;;;5.81;68.99
57610;BME280;43435;46.186;9.024;2023-12-04T19:44:54;98833.28;;;5.74;69.96
57610;BME280;43435;46.186;9.024;2023-12-04T19:47:20;98827.97;;;5.66;70.45
57610;BME280;43435;46.186;9.024;2023-12-04T19:49:45;98826.81;;;5.69;70.44
57610;BME280;43435;46.186;9.024;2023-12-04T19:52:10;98823.50;;;5.67;70.46
57610;BME280;43435;46.186;9.024;2023-12-04T19:54:36;98826.81;;;5.61;71.11
57610;BME280;43435;46.186;9.024;2023-12-04T19:57:01;98828.16;;;5.56;71.01
57610;BME280;43435;46.186;9.024;2023-12-04T19:59:27;98832.25;;;5.59;70.81
57610;BME280;43435;46.186;9.024;2023-12-04T20:01:52;98838.56;;;5.58;70.84
57610;BME280;43435;46.186;9.024;2023-12-04T20:04:18;98838.09;;;5.71;70.07
57610;BME280;43435;46.186;9.024;2023-12-04T20:06:43;98837.75;;;5.90;68.96
57610;BME280;43435;46.186;9.024;2023-12-04T20:09:08;98830.16;;;5.95;68.65
57610;BME280;43435;46.186;9.024;2023-12-04T20:11:34;98835.28;;;6.05;67.73
57610;BME280;43435;46.186;9.024;2023-12-04T20:14:00;98826.03;;;6.09;67.22
57610;BME280;43435;46.186;9.024;2023-12-04T20:16:25;98816.44;;;6.08;66.88
57610;BME280;43435;46.186;9.024;2023-12-04T20:18:50;98820.72;;;6.09;66.55
57610;BME280;43435;46.186;9.024;2023-12-04T20:21:16;98823.06;;;6.04;66.69
57610;BME280;43435;46.186;9.024;2023-12-04T20:23:41;98822.22;;;6.03;66.78
57610;BME280;43435;46.186;9.024;2023-12-04T20:26:06;98826.53;;;6.04;66.60
57610;BME280;43435;46.186;9.024;2023-12-04T20:28:31;98809.81;;;5.96;66.63
57610;BME280;43435;46.186;9.024;2023-12-04T20:30:57;98813.78;;;6.00;66.57
57610;BME280;43435;46.186;9.024;2023-12-04T20:33:22;98817.09;;;5.94;66.87
57610;BME280;43435;46.186;9.024;2023-12-04T20:35:47;98814.28;;;5.95;66.98
57610;BME280;43435;46.186;9.024;2023-12-04T20:38:12;98813.75;;;5.92;66.96
57610;BME280;43435;46.186;9.024;2023-12-04T20:40:39;98804.81;;;5.85;67.40
57610;BME280;43435;46.186;9.024;2023-12-04T20:43:04;98796.88;;;5.85;67.16
57610;BME280;43435;46.186;9.024;2023-12-04T20:45:31;98796.38;;;5.81;67.42
57610;BME280;43435;46.186;9.024;2023-12-04T20:47:57;98794.06;;;5.78;67.75
57610;BME280;43435;46.186;9.024;2023-12-04T20:50:22;98792.75;;;5.90;66.73
57610;BME280;43435;46.186;9.024;2023-12-04T20:52:48;98788.31;;;5.99;66.23
57610;BME280;43435;46.186;9.024;2023-12-04T20:55:13;98782.31;;;5.89;67.01
57610;BME280;43435;46.186;9.024;2023-12-04T20:57:38;98773.56;;;5.80;67.71
57610;BME280;43435;46.186;9.024;2023-12-04T21:00:04;98780.69;;;5.71;67.40
57610;BME280;43435;46.186;9.024;2023-12-04T21:02:31;98776.38;;;5.70;67.64
57610;BME280;43435;46.186;9.024;2023-12-04T21:04:56;98781.34;;;5.73;67.97
57610;BME280;43435;46.186;9.024;2023-12-04T21:07:21;98787.63;;;5.89;67.45
57610;BME280;43435;46.186;9.024;2023-12-04T21:09:47;98770.78;;;5.98;66.71
57610;BME280;43435;46.186;9.024;2023-12-04T21:12:12;98766.44;;;5.89;67.63
57610;BME280;43435;46.186;9.024;2023-12-04T21:14:38;98776.72;;;5.75;68.51
57610;BME280;43435;46.186;9.024;2023-12-04T21:17:03;98771.91;;;5.63;69.15
57610;BME280;43435;46.186;9.024;2023-12-04T21:19:29;98779.03;;;5.62;69.42
